Архив погоды в Качуге

Метеограмма Качуг
Четверг, 16 Августа
Время местн. Темп Ветер Видим Явления Облачность нижн/средн/верх Атм. давл. Влжн Точка росы ВНГО R Сост. почвы Tg s
Напр Скр Прв ур.ст ур.м изм
05:00 +5° З 1 - - - ясно 718 765 -0.3 94% +4.1° более 2.5 км - - - -
02:00 +7.1° штиль 0 - - - ясно 718 765 +0.2 92% +5.9° более 2.5 км - - - -
Среда, 15 Августа
Время местн. Темп Ветер Видим Явления Облачность нижн/средн/верх Атм. давл. Влжн Точка росы ВНГО R Сост. почвы Tg s
Напр Скр Прв ур.ст ур.м изм
23:00 +11.9° З,С-З 1 - - - переменная облачность 718 764 +1.1 78% +8.2° более 2.5 км - - - -
20:00 +16.2° З 2 - 20 км - переменная облачность 717 762 +0.6 60% +8.4° более 2.5 км 0 - - -
17:00 +18.6° З,С-З 2 - 20 км - облачно с прояснениями 717 761 +0.4 54% +9.1° 1.5 км - - - -
14:00 +18.2° З,Ю-З 2 - 20 км - облачно с прояснениями 716 761 +0.5 59% +10.1° 1.5 км - - - -
11:00 +17° Ю 2 - 20 км - облачно с прояснениями 716 761 +0.8 65% +10.4° 1 км - - - -
08:00 +14.2° З 2 - 20 км облака развиваются {ливневые осадки} облачно 715 760 +2.3 82% +11.2° 1 км 3 Влажная (без луж) +15° -
05:00 +15.8° Ю,Ю-З 3 - - слабый ливневый дождь облачно 713 758 +2 94% +14.8° 1 км - - - -
02:00 +18.6° В 2 - - слабый ливневый дождь облачно 711 755 +1.1 79% +14.9° 1.5 км - - - -
Вторник, 14 Августа
Время местн. Темп Ветер Видим Явления Облачность нижн/средн/верх Атм. давл. Влжн Точка росы ВНГО R Сост. почвы Tg s
Напр Скр Прв ур.ст ур.м изм
23:00 +24° В 2 - - - облачно 710 753 +0.1 45% +11.4° 1.5 км - - - -
20:00 +24.3° В 2 - 20 км - облачно 710 753 -1 50% +13.1° 1.5 км 0 - - -
17:00 +27.3° Ю 3 - 20 км - облачно 711 754 -0.5 45% +14.3° 1.5 км - - - -
14:00 +28° Ю-В 2 - 20 км - облачно 711 754 -1.7 47% +15.8° 1.5 км - - - -
11:00 +22.5° Ю 1 - 20 км - облачно 713 757 +0.2 65% +15.6° 1.5 км - - - -
08:00 +14.9° Ю,Ю-В 1 - 20 км - облачно 713 758 +0.5 87% +12.8° 1.5 км 0 Сухая (без трещин) +10° -
05:00 +12.2° Ю 1 - 20 км - преимущественно облачно 712 758 +0.2 95% +11.4° 1.5 км - - - -
02:00 +13.9° С,С-В 1 - - - ясно 712 757 +1 89% +12.2° более 2.5 км - - - -
Понедельник, 13 Августа
Время местн. Темп Ветер Видим Явления Облачность нижн/средн/верх Атм. давл. Влжн Точка росы ВНГО R Сост. почвы Tg s
Напр Скр Прв ур.ст ур.м изм
23:00 +16.8° Ю,Ю-З 1 - - - ясно 711 756 +1.4 84% +14.1° более 2.5 км - - - -
20:00 +24.2° В,Ю-В 1 - 20 км - переменная облачность 710 753 +0.9 60% +15.9° 1.5 км 0 - - -
17:00 +28.7° Ю,Ю-В 3 - 20 км - переменная облачность 709 751 +0.3 39% +13.2° 1.5 км - - - -
14:00 +28.9° Ю-В 2 - 20 км - переменная облачность 709 751 -0.2 38% +13° 1.5 км - - - -
11:00 +25.1° В,Ю-В 3 - 20 км - переменная облачность 709 752 -0.2 49% +13.6° более 2.5 км - - - -
08:00 +15.1° штиль 0 - более 50 км - переменная облачность 709 754 +0.2 78% +11.3° более 2.5 км 0 Сухая (без трещин) +8° -
05:00 +10.2° штиль 0 - 20 км - ясно 709 754 0 94% +9.2° более 2.5 км - - - -
02:00 +12.4° Ю 1 - - - ясно 709 754 +0.1 92% +11.2° более 2.5 км - - - -